createdAt,value
2016-11-30T00:00:13.252Z,28.4
2016-11-30T00:01:09.265Z,28.4
2016-11-30T00:02:09.272Z,28.4
2016-11-30T00:03:09.236Z,28.4
2016-11-30T00:04:13.416Z,28.4
2016-11-30T00:05:13.445Z,28.4
2016-11-30T00:06:13.537Z,28.4
2016-11-30T00:07:13.532Z,28.4
2016-11-30T00:08:09.559Z,28.4
2016-11-30T00:09:13.819Z,28.4
2016-11-30T00:10:09.836Z,28.4
2016-11-30T00:11:09.909Z,28.4
2016-11-30T00:12:13.913Z,28.4
2016-11-30T00:13:09.746Z,28.4
2016-11-30T00:14:09.888Z,28.4
2016-11-30T00:15:09.808Z,28.4
2016-11-30T00:16:13.969Z,28.4
2016-11-30T00:17:09.854Z,28.4
2016-11-30T00:18:14.044Z,28.4
2016-11-30T00:19:09.932Z,28.4
2016-11-30T00:20:10.125Z,28.4
2016-11-30T00:21:14.126Z,28.4
2016-11-30T00:22:14.273Z,28.4
2016-11-30T00:23:10.192Z,28.4
2016-11-30T00:24:10.327Z,28.4
2016-11-30T00:25:10.238Z,28.4
2016-11-30T00:26:14.285Z,28.4
2016-11-30T00:27:14.535Z,28.4
2016-11-30T00:28:14.423Z,28.3
2016-11-30T00:29:14.610Z,28.4
2016-11-30T00:30:14.470Z,28.4
2016-11-30T00:31:10.467Z,28.4
2016-11-30T00:32:14.660Z,28.4
2016-11-30T00:33:10.588Z,28.4
2016-11-30T00:34:14.641Z,28.4
2016-11-30T00:35:14.650Z,28.4
2016-11-30T00:36:14.874Z,28.4
2016-11-30T00:37:10.715Z,28.3
2016-11-30T00:38:10.958Z,28.4
2016-11-30T00:39:14.923Z,28.4
2016-11-30T00:40:10.985Z,28.4
2016-11-30T00:41:14.872Z,28.4
2016-11-30T00:42:14.902Z,28.4
2016-11-30T00:43:11.057Z,28.4
2016-11-30T00:44:11.138Z,28.4
2016-11-30T00:45:11.182Z,28.4
2016-11-30T00:46:15.239Z,28.4
2016-11-30T00:47:11.354Z,28.4
2016-11-30T00:48:11.229Z,28.4
2016-11-30T00:49:11.286Z,28.4
2016-11-30T00:50:15.421Z,28.4
2016-11-30T00:51:15.452Z,28.4
2016-11-30T00:52:11.476Z,28.4
2016-11-30T00:53:11.491Z,28.4
2016-11-30T00:54:11.751Z,28.4
2016-11-30T00:55:15.570Z,28.4
2016-11-30T00:56:15.586Z,28.3
2016-11-30T00:57:11.700Z,28.4
2016-11-30T00:58:15.567Z,28.4
2016-11-30T00:59:15.761Z,28.3
2016-11-30T01:00:15.834Z,28.4
2016-11-30T01:01:15.829Z,28.4
2016-11-30T01:02:11.756Z,28.3
2016-11-30T01:03:11.928Z,28.3
2016-11-30T01:04:15.918Z,28.4
2016-11-30T01:05:11.844Z,28.3
2016-11-30T01:06:16.083Z,28.3
2016-11-30T01:07:12.101Z,28.3
2016-11-30T01:08:16.174Z,28.3
2016-11-30T01:09:12.263Z,28.3
2016-11-30T01:10:12.212Z,28.3
2016-11-30T01:11:16.341Z,28.3
2016-11-30T01:12:12.494Z,28.3
2016-11-30T01:13:12.448Z,28.3
2016-11-30T01:14:16.386Z,28.3
2016-11-30T01:15:12.602Z,28.3
2016-11-30T01:16:17.087Z,28.3
2016-11-30T01:17:12.737Z,28.3
2016-11-30T01:18:16.684Z,28.3
2016-11-30T01:19:16.628Z,28.3
2016-11-30T01:20:12.629Z,28.3
2016-11-30T01:21:12.856Z,28.3
2016-11-30T01:22:12.733Z,28.3
2016-11-30T01:23:12.778Z,28.3
2016-11-30T01:24:12.999Z,28.3
2016-11-30T01:25:16.897Z,28.3
2016-11-30T01:26:17.046Z,28.3
2016-11-30T01:27:17.150Z,28.3
2016-11-30T01:28:16.935Z,28.3
2016-11-30T01:29:17.139Z,28.3
2016-11-30T01:30:17.107Z,28.3
2016-11-30T01:31:13.269Z,28.3
2016-11-30T01:32:13.248Z,28.3
2016-11-30T01:33:17.148Z,28.3
2016-11-30T01:34:13.156Z,28.3
2016-11-30T01:35:13.208Z,28.3
2016-11-30T01:36:13.467Z,28.3
2016-11-30T01:37:13.550Z,28.3
2016-11-30T01:38:13.602Z,28.3
2016-11-30T01:39:13.688Z,28.3
2016-11-30T01:40:13.610Z,28.3
2016-11-30T01:41:17.875Z,28.3
2016-11-30T01:42:13.710Z,28.3
2016-11-30T01:43:13.748Z,28.3
2016-11-30T01:44:17.960Z,28.3
2016-11-30T01:45:18.170Z,28.3
2016-11-30T01:46:18.029Z,28.3
2016-11-30T01:47:14.045Z,28.3
2016-11-30T01:48:18.233Z,28.2
2016-11-30T01:49:14.333Z,28.3
2016-11-30T01:50:14.419Z,28.2
2016-11-30T01:51:14.501Z,28.3
2016-11-30T01:52:14.468Z,28.3
2016-11-30T01:53:18.558Z,28.3
2016-11-30T01:54:14.710Z,28.3
2016-11-30T01:55:18.705Z,28.2
2016-11-30T01:56:14.818Z,28.3
2016-11-30T01:57:18.773Z,28.3
2016-11-30T01:58:14.808Z,28.3
2016-11-30T01:59:15.058Z,28.3
2016-11-30T02:00:18.978Z,28.3
2016-11-30T02:01:15.170Z,28.3
2016-11-30T02:02:19.129Z,28.3
2016-11-30T02:03:15.159Z,28.2
2016-11-30T02:04:19.184Z,28.3
2016-11-30T02:05:19.226Z,28.3
2016-11-30T02:06:15.413Z,28.2
2016-11-30T02:07:15.462Z,28.3
2016-11-30T02:08:19.392Z,28.3
2016-11-30T02:09:19.436Z,28.3
2016-11-30T02:10:19.582Z,28.3
2016-11-30T02:11:19.576Z,28.2
2016-11-30T02:12:15.739Z,28.3
2016-11-30T02:13:15.841Z,28.3
2016-11-30T02:14:19.931Z,28.2
2016-11-30T02:15:19.785Z,28.2
2016-11-30T02:16:19.835Z,28.2
2016-11-30T02:17:19.837Z,28.2
2016-11-30T02:18:20.087Z,28.2
2016-11-30T02:19:20.190Z,28.2
2016-11-30T02:20:20.137Z,28.2
2016-11-30T02:21:20.177Z,28.2
2016-11-30T02:22:20.205Z,28.2
2016-11-30T02:23:16.267Z,28.2
2016-11-30T02:24:16.193Z,28.2
2016-11-30T02:25:20.356Z,28.2
2016-11-30T02:26:20.387Z,28.2
2016-11-30T02:27:20.252Z,28.2
2016-11-30T02:28:20.298Z,28.2
2016-11-30T02:29:20.361Z,28.2
2016-11-30T02:30:16.447Z,28.3
2016-11-30T02:31:20.717Z,28.3
2016-11-30T02:32:20.575Z,28.2
2016-11-30T02:33:20.632Z,28.2
2016-11-30T02:34:16.516Z,28.2
2016-11-30T02:35:16.664Z,28.2
2016-11-30T02:36:20.726Z,28.2
2016-11-30T02:37:20.741Z,28.2
2016-11-30T02:38:16.909Z,28.2
2016-11-30T02:39:20.858Z,28.2
2016-11-30T02:40:20.913Z,28.2
2016-11-30T02:41:20.858Z,28.2
2016-11-30T02:42:20.965Z,28.2
2016-11-30T02:43:21.732Z,28.2
2016-11-30T02:44:18.206Z,28.2
2016-11-30T02:45:21.078Z,28.2
2016-11-30T02:46:21.939Z,28.2
2016-11-30T02:47:17.216Z,28.2
2016-11-30T02:48:21.376Z,28.2
2016-11-30T02:49:18.197Z,28.2
2016-11-30T02:50:21.743Z,28.2
2016-11-30T02:51:17.664Z,28.2
2016-11-30T02:52:17.612Z,28.2
2016-11-30T02:53:21.516Z,28.2
2016-11-30T02:54:18.277Z,28.2
2016-11-30T02:55:18.776Z,28.2
2016-11-30T02:56:21.658Z,28.2
2016-11-30T02:57:17.592Z,28.2
2016-11-30T02:58:17.554Z,28.2
2016-11-30T02:59:17.593Z,28.2
2016-11-30T03:00:18.525Z,28.2
2016-11-30T03:01:21.780Z,28.2
2016-11-30T03:02:21.862Z,28.2
2016-11-30T03:03:17.876Z,28.2
2016-11-30T03:04:23.841Z,28.2
2016-11-30T03:05:21.913Z,28.2
2016-11-30T03:06:18.112Z,28.2
2016-11-30T03:07:17.949Z,28.2
2016-11-30T03:08:26.107Z,28.2
2016-11-30T03:09:18.004Z,28.2
2016-11-30T03:10:22.307Z,28.2
2016-11-30T03:11:18.796Z,28.2
2016-11-30T03:12:22.547Z,28.2
2016-11-30T03:13:19.756Z,28.2
2016-11-30T03:14:23.363Z,28.2
2016-11-30T03:15:22.460Z,28.2
2016-11-30T03:16:22.500Z,28.2
2016-11-30T03:17:18.667Z,28.2
2016-11-30T03:18:22.698Z,28.2
2016-11-30T03:19:22.737Z,28.2
2016-11-30T03:20:22.597Z,28.2
2016-11-30T03:21:18.656Z,28.2
2016-11-30T03:22:22.822Z,28.2
2016-11-30T03:23:22.767Z,28.2
2016-11-30T03:24:22.730Z,28.2
2016-11-30T03:25:23.096Z,28.2
2016-11-30T03:26:23.140Z,28.2
2016-11-30T03:27:19.206Z,28.2
2016-11-30T03:28:19.232Z,28.2
2016-11-30T03:29:19.305Z,28.1
2016-11-30T03:30:19.253Z,28.2
2016-11-30T03:31:18.983Z,28.2
2016-11-30T03:32:19.213Z,28.2
2016-11-30T03:33:23.159Z,28.2
2016-11-30T03:34:23.213Z,28.2
2016-11-30T03:35:23.270Z,28.1
2016-11-30T03:36:19.296Z,28.2
2016-11-30T03:37:19.558Z,28.2
2016-11-30T03:38:19.666Z,28.1
2016-11-30T03:39:23.654Z,28.1
2016-11-30T03:40:19.706Z,28.1
2016-11-30T03:42:27.748Z,28.2
2016-11-30T03:43:27.896Z,28.2
2016-11-30T03:44:27.852Z,28.1
2016-11-30T03:45:28.062Z,28.1
2016-11-30T03:46:27.969Z,28.1
2016-11-30T03:47:27.981Z,28.1
2016-11-30T03:48:28.068Z,28.1
2016-11-30T03:49:28.075Z,28.1
2016-11-30T03:50:28.217Z,28.1
2016-11-30T03:51:28.471Z,28.1
2016-11-30T03:52:28.451Z,28.1
2016-11-30T03:53:28.447Z,28.1
2016-11-30T03:54:28.613Z,28.1
2016-11-30T03:55:28.621Z,28.1
2016-11-30T03:56:29.928Z,28.1
2016-11-30T03:57:28.607Z,28.1
2016-11-30T03:58:28.745Z,28.1
2016-11-30T03:59:28.788Z,28.1
2016-11-30T04:00:28.873Z,28.1
2016-11-30T04:01:28.842Z,28.1
2016-11-30T04:02:29.129Z,28.1
2016-11-30T04:03:27.149Z,28.1
2016-11-30T04:04:25.084Z,28.1
2016-11-30T04:05:25.033Z,28.1
2016-11-30T04:06:25.127Z,28.1
2016-11-30T04:07:20.977Z,28.1
2016-11-30T04:08:21.372Z,28.1
2016-11-30T04:09:25.905Z,28.1
2016-11-30T04:10:21.511Z,28.1
2016-11-30T04:11:25.417Z,28.1
2016-11-30T04:12:21.393Z,28.1
2016-11-30T04:13:21.274Z,28.1
2016-11-30T04:14:25.472Z,28.1
2016-11-30T04:15:25.456Z,28.1
2016-11-30T04:16:25.539Z,28.1
2016-11-30T04:17:21.547Z,28.1
2016-11-30T04:18:25.663Z,28.1
2016-11-30T04:19:21.864Z,28.1
2016-11-30T04:20:21.777Z,28.1
2016-11-30T04:21:25.878Z,28.1
2016-11-30T04:22:25.936Z,28.1
2016-11-30T04:23:22.148Z,28.1
2016-11-30T04:24:26.020Z,28.1
2016-11-30T04:25:26.072Z,28.1
2016-11-30T04:26:22.245Z,28.1
2016-11-30T04:27:22.350Z,28.1
2016-11-30T04:28:22.359Z,28.1
2016-11-30T04:29:22.339Z,28.1
2016-11-30T04:30:26.298Z,28.1
2016-11-30T04:31:26.492Z,28.1
2016-11-30T04:32:26.405Z,28.1
2016-11-30T04:33:22.523Z,28.1
2016-11-30T04:34:22.466Z,28.1
2016-11-30T04:35:26.512Z,28.1
2016-11-30T04:36:26.501Z,28.1
2016-11-30T04:37:26.565Z,28.1
2016-11-30T04:38:22.789Z,28.1
2016-11-30T04:39:22.620Z,28.1
2016-11-30T04:40:22.785Z,28.1
2016-11-30T04:41:26.725Z,28.1
2016-11-30T04:42:26.942Z,28.1
2016-11-30T04:43:26.970Z,28.1
2016-11-30T04:44:22.829Z,28.1
2016-11-30T04:45:27.094Z,28.1
2016-11-30T04:46:23.198Z,28.1
2016-11-30T04:47:23.099Z,28.1
2016-11-30T04:48:23.377Z,28.1
2016-11-30T04:49:23.367Z,28.1
2016-11-30T04:50:27.464Z,28.1
2016-11-30T04:51:23.493Z,28.1
2016-11-30T04:52:23.672Z,28.1
2016-11-30T04:53:23.563Z,28.1
2016-11-30T04:54:23.700Z,28.1
2016-11-30T04:55:23.573Z,28.1
2016-11-30T04:56:23.786Z,28.1
2016-11-30T04:57:27.892Z,28.1
2016-11-30T04:58:23.912Z,28.1
2016-11-30T04:59:27.837Z,28.1
2016-11-30T05:00:24.051Z,28.1
2016-11-30T05:01:24.042Z,28.1
2016-11-30T05:02:28.104Z,28.1
2016-11-30T05:03:28.227Z,28.1
2016-11-30T05:04:28.114Z,28.1
2016-11-30T05:05:24.284Z,28.1
2016-11-30T05:06:24.184Z,28.1
2016-11-30T05:07:28.269Z,28.1
2016-11-30T05:08:24.434Z,28.1
2016-11-30T05:09:24.430Z,28.1
2016-11-30T05:10:28.411Z,28.1
2016-11-30T05:11:28.581Z,28.1
2016-11-30T05:12:28.461Z,28.1
2016-11-30T05:13:28.518Z,28.1
2016-11-30T05:14:24.555Z,28
2016-11-30T05:15:28.652Z,28
2016-11-30T05:16:28.713Z,28.1
2016-11-30T05:17:28.907Z,28.1
2016-11-30T05:18:29.545Z,28.1
2016-11-30T05:19:24.998Z,28.1
2016-11-30T05:20:24.848Z,28.1
2016-11-30T05:21:28.945Z,28.1
2016-11-30T05:22:28.991Z,28
2016-11-30T05:23:29.093Z,28.1
2016-11-30T05:24:29.158Z,28.1
2016-11-30T05:25:29.320Z,28.1
2016-11-30T05:26:29.400Z,28.1
2016-11-30T05:27:29.427Z,28.1
2016-11-30T05:28:25.469Z,28.1
2016-11-30T05:29:25.399Z,28
2016-11-30T05:30:25.669Z,28
2016-11-30T05:31:29.530Z,28.1
2016-11-30T05:32:25.608Z,28.1
2016-11-30T05:33:25.624Z,28.1
2016-11-30T05:34:29.706Z,28
2016-11-30T05:35:25.885Z,28.1
2016-11-30T05:36:29.836Z,28.1
2016-11-30T05:37:29.887Z,28.1
2016-11-30T05:38:29.865Z,28.1
2016-11-30T05:39:30.125Z,28.1
2016-11-30T05:40:30.029Z,28
2016-11-30T05:41:30.187Z,28.1
2016-11-30T05:42:30.336Z,28.1
2016-11-30T05:43:31.253Z,28.1
2016-11-30T05:44:30.298Z,28.1
2016-11-30T05:45:26.357Z,28.1
2016-11-30T05:46:30.530Z,28.1
2016-11-30T05:47:30.464Z,28.1
2016-11-30T05:48:30.502Z,28.1
2016-11-30T05:49:26.558Z,28.1
2016-11-30T05:50:26.866Z,28.1
2016-11-30T05:51:26.853Z,28.1
2016-11-30T05:52:26.743Z,28.1
2016-11-30T05:53:31.039Z,28.1
2016-11-30T05:54:31.066Z,28
2016-11-30T05:55:30.980Z,28
2016-11-30T05:56:26.893Z,28
2016-11-30T05:57:26.962Z,28
2016-11-30T05:58:27.223Z,28
2016-11-30T05:59:31.107Z,28
2016-11-30T06:00:27.289Z,28
2016-11-30T06:01:27.375Z,28
2016-11-30T06:02:27.538Z,28
2016-11-30T06:03:27.452Z,28
2016-11-30T06:04:27.405Z,28
2016-11-30T06:05:27.486Z,28
2016-11-30T06:06:27.500Z,28
2016-11-30T06:07:27.748Z,28
2016-11-30T06:08:31.656Z,28
2016-11-30T06:09:28.379Z,28
2016-11-30T06:10:27.734Z,28
2016-11-30T06:11:31.828Z,28.1
2016-11-30T06:12:27.953Z,28.1
2016-11-30T06:13:31.985Z,28.1
2016-11-30T06:14:32.057Z,28.1
2016-11-30T06:15:32.108Z,28.1
2016-11-30T06:16:28.082Z,28.1
2016-11-30T06:17:32.125Z,28.1
2016-11-30T06:18:28.403Z,28.1
2016-11-30T06:19:28.442Z,28.1
2016-11-30T06:20:28.490Z,28.1
2016-11-30T06:21:28.994Z,28.1
2016-11-30T06:22:28.415Z,28.1
2016-11-30T06:23:29.234Z,28.1
2016-11-30T06:24:32.508Z,28.1
2016-11-30T06:25:32.738Z,28.1
2016-11-30T06:26:28.649Z,28.1
2016-11-30T06:27:32.838Z,28.1
2016-11-30T06:28:28.672Z,28.1
2016-11-30T06:29:32.736Z,28.1
2016-11-30T06:30:33.945Z,28.1
2016-11-30T06:31:32.948Z,28.1
2016-11-30T06:32:29.479Z,28.1
2016-11-30T06:33:32.833Z,28.1
2016-11-30T06:34:32.919Z,28.1
2016-11-30T06:35:33.027Z,28.1
2016-11-30T06:36:29.004Z,28.1
2016-11-30T06:37:33.201Z,28.1
2016-11-30T06:38:33.021Z,28.1
2016-11-30T06:39:29.296Z,28.1
2016-11-30T06:40:33.183Z,28.1
2016-11-30T06:41:29.827Z,28.2
2016-11-30T06:42:33.402Z,28.2
2016-11-30T06:43:33.338Z,28.2
2016-11-30T06:44:33.491Z,28.2
2016-11-30T06:45:33.561Z,28.2
2016-11-30T06:46:30.119Z,28.2
2016-11-30T06:47:29.542Z,28.2
2016-11-30T06:48:33.625Z,28.2
2016-11-30T06:49:29.782Z,28.2
2016-11-30T06:50:33.714Z,28.2
2016-11-30T06:51:29.891Z,28.2
2016-11-30T06:52:30.493Z,28.2
2016-11-30T06:53:33.803Z,28.2
2016-11-30T06:54:30.024Z,28.2
2016-11-30T06:55:34.008Z,28.1
2016-11-30T06:56:30.505Z,28.1
2016-11-30T06:57:33.998Z,28.1
2016-11-30T06:58:30.164Z,28.1
2016-11-30T06:59:34.019Z,28.1
2016-11-30T07:00:29.995Z,28.1
2016-11-30T07:01:30.126Z,28.1
2016-11-30T07:02:30.159Z,28.1
2016-11-30T07:03:34.210Z,28.1
2016-11-30T07:04:34.422Z,28.1
2016-11-30T07:05:30.293Z,28.1
2016-11-30T07:06:30.298Z,28.1
2016-11-30T07:07:34.407Z,28.1
2016-11-30T07:08:31.165Z,28.1
2016-11-30T07:09:30.512Z,28.1
2016-11-30T07:10:34.558Z,28.1
2016-11-30T07:11:34.692Z,28.1
2016-11-30T07:12:31.246Z,28.1
2016-11-30T07:13:30.686Z,28.1
2016-11-30T07:14:30.775Z,28.1
2016-11-30T07:15:30.887Z,28.1
2016-11-30T07:16:31.086Z,28.1
2016-11-30T07:17:34.945Z,28.1
2016-11-30T07:18:31.164Z,28.1
2016-11-30T07:19:35.633Z,28.1
2016-11-30T07:20:35.017Z,28.1
2016-11-30T07:21:35.105Z,27.5
2016-11-30T07:22:36.544Z,26.5
2016-11-30T07:23:31.070Z,25.5
2016-11-30T07:24:35.298Z,24.5
2016-11-30T07:25:32.450Z,23.6
2016-11-30T07:26:31.347Z,22.9
2016-11-30T07:27:31.456Z,22.3
2016-11-30T07:28:35.359Z,21.5
2016-11-30T07:29:36.086Z,21
2016-11-30T07:30:31.447Z,20.6
2016-11-30T07:31:36.195Z,20.1
2016-11-30T07:32:31.716Z,19.8
2016-11-30T07:33:35.674Z,19.5
2016-11-30T07:34:35.899Z,19.2
2016-11-30T07:35:39.334Z,19.1
2016-11-30T07:36:31.813Z,18.9
2016-11-30T07:37:36.017Z,18.8
2016-11-30T07:38:36.008Z,18.8
2016-11-30T07:39:32.156Z,18.8
2016-11-30T07:40:31.975Z,18.8
2016-11-30T07:41:32.104Z,18.6
2016-11-30T07:42:32.106Z,18.6
2016-11-30T07:43:36.166Z,18.5
2016-11-30T07:44:36.154Z,18.6
2016-11-30T07:45:36.219Z,18.9
2016-11-30T07:46:32.478Z,19.2
2016-11-30T07:47:36.980Z,19.5
2016-11-30T07:48:36.398Z,19.9
2016-11-30T07:49:37.364Z,20.3
2016-11-30T07:50:36.478Z,20.6
2016-11-30T07:51:32.571Z,21
2016-11-30T07:52:36.585Z,21.3
2016-11-30T07:53:32.678Z,21.6
2016-11-30T07:54:37.357Z,22
2016-11-30T07:55:33.352Z,22.2
2016-11-30T07:56:36.772Z,22.5
2016-11-30T07:57:36.942Z,22.7
2016-11-30T07:58:37.670Z,22.9
2016-11-30T07:59:37.651Z,23.1
2016-11-30T08:00:35.464Z,23.3
2016-11-30T08:01:37.103Z,23.4
2016-11-30T08:02:37.849Z,23.6
2016-11-30T08:03:37.326Z,23.7
2016-11-30T08:04:37.296Z,23.9
2016-11-30T08:05:33.994Z,24
2016-11-30T08:06:37.583Z,24.1
2016-11-30T08:07:38.286Z,24.3
2016-11-30T08:08:33.516Z,24.4
2016-11-30T08:09:35.737Z,24.5
2016-11-30T08:10:38.555Z,24.6
2016-11-30T08:11:37.790Z,24.7
2016-11-30T08:12:38.008Z,24.9
2016-11-30T08:13:37.872Z,25
2016-11-30T08:14:34.004Z,25.1
2016-11-30T08:15:34.623Z,25.2
2016-11-30T08:16:38.841Z,25.3
2016-11-30T08:17:34.127Z,25.4
2016-11-30T08:18:39.347Z,25.5
2016-11-30T08:19:34.125Z,25.6
2016-11-30T08:20:35.351Z,25.7
2016-11-30T08:21:35.731Z,25.8
2016-11-30T08:22:34.409Z,25.9
2016-11-30T08:23:34.960Z,26
2016-11-30T08:24:38.287Z,26.1
2016-11-30T08:25:38.460Z,26.1
2016-11-30T08:26:38.982Z,26.2
2016-11-30T08:27:38.593Z,26.2
2016-11-30T08:28:35.124Z,26.2
2016-11-30T08:29:38.527Z,26.2
2016-11-30T08:30:34.589Z,26.3
2016-11-30T08:31:35.373Z,26.3
2016-11-30T08:32:39.511Z,26.4
2016-11-30T08:33:38.851Z,26.4
2016-11-30T08:34:34.772Z,26.5
2016-11-30T08:35:35.561Z,26.5
2016-11-30T08:36:39.064Z,26.6
2016-11-30T08:37:39.876Z,26.6
2016-11-30T08:38:34.881Z,26.7
2016-11-30T08:39:39.604Z,26.7
2016-11-30T08:40:35.685Z,26.7
2016-11-30T08:41:35.078Z,26.8
2016-11-30T08:46:31.083Z,26.9
2016-11-30T08:47:32.898Z,26.9
2016-11-30T08:48:31.169Z,26.8
2016-11-30T08:49:27.231Z,26.9
2016-11-30T08:50:27.926Z,26.9
2016-11-30T08:51:33.833Z,26.9
2016-11-30T08:52:29.193Z,26.9
2016-11-30T08:53:32.139Z,27
2016-11-30T08:54:28.286Z,27
2016-11-30T08:55:32.037Z,26.9
2016-11-30T08:56:27.587Z,27
2016-11-30T08:57:29.147Z,27
2016-11-30T08:58:28.794Z,27
2016-11-30T08:59:27.586Z,27
2016-11-30T09:00:31.729Z,27
2016-11-30T09:01:32.271Z,27.1
2016-11-30T09:02:32.720Z,27.1
2016-11-30T09:03:29.040Z,27.1
2016-11-30T09:04:28.536Z,27.1
2016-11-30T09:05:29.153Z,27
2016-11-30T09:06:32.798Z,26.6
2016-11-30T09:07:30.373Z,26.3
2016-11-30T09:08:29.997Z,26
2016-11-30T09:09:28.356Z,25.8
2016-11-30T09:10:31.335Z,25.5
2016-11-30T09:11:45.350Z,25.2
2016-11-30T09:12:41.895Z,25.1
2016-11-30T09:13:56.475Z,24.9
2016-11-30T09:14:41.561Z,24.8
2016-11-30T09:15:37.700Z,24.6
2016-11-30T09:16:36.953Z,24.5
2016-11-30T09:17:36.940Z,24.4
2016-11-30T09:18:33.741Z,24.3
2016-11-30T09:19:36.069Z,24.2
2016-11-30T09:20:33.475Z,24.2
2016-11-30T09:21:29.053Z,24.1
2016-11-30T09:22:33.069Z,24
2016-11-30T09:23:33.060Z,23.9
2016-11-30T09:24:34.254Z,23.8
2016-11-30T09:25:34.954Z,23.8
2016-11-30T09:26:29.991Z,23.7
2016-11-30T09:27:33.771Z,23.7
2016-11-30T09:28:35.027Z,23.8
2016-11-30T09:29:29.401Z,24
2016-11-30T09:30:34.664Z,24.3
2016-11-30T09:31:33.420Z,24.5
2016-11-30T09:32:34.847Z,24.7
2016-11-30T09:33:30.805Z,24.9
2016-11-30T09:34:35.693Z,25.1
2016-11-30T09:35:30.743Z,25.2
2016-11-30T09:36:35.589Z,25.4
2016-11-30T09:37:31.412Z,25.6
2016-11-30T09:38:32.875Z,25.7
2016-11-30T09:39:36.175Z,25.8
2016-11-30T09:40:32.535Z,26
2016-11-30T09:41:36.081Z,26.1
2016-11-30T09:42:30.661Z,26.3
2016-11-30T09:43:30.312Z,26.4
2016-11-30T09:44:34.258Z,26.5
2016-11-30T09:45:32.021Z,26.6
2016-11-30T09:46:31.400Z,26.7
2016-11-30T09:47:30.998Z,26.7
2016-11-30T09:48:36.113Z,26.9
2016-11-30T09:49:39.865Z,27
2016-11-30T09:50:31.265Z,27
2016-11-30T09:51:35.261Z,27.1
2016-11-30T09:52:30.591Z,27.2
2016-11-30T09:53:35.827Z,27.3
2016-11-30T09:54:30.639Z,27.3
2016-11-30T09:55:33.996Z,27.4
2016-11-30T09:56:32.266Z,27.4
2016-11-30T09:57:32.266Z,27.5
2016-11-30T09:58:38.079Z,27.6
2016-11-30T09:59:31.774Z,27.6
2016-11-30T10:00:31.409Z,27.6
2016-11-30T10:01:36.769Z,27.7
2016-11-30T10:02:36.384Z,27.7
2016-11-30T10:03:31.105Z,27.7
2016-11-30T10:04:32.303Z,27.8
2016-11-30T10:05:31.275Z,27.8
2016-11-30T10:06:31.343Z,27.9
2016-11-30T10:07:36.709Z,27.9
2016-11-30T10:08:31.294Z,28
2016-11-30T10:09:34.087Z,28
2016-11-30T10:10:37.285Z,28.1
2016-11-30T10:11:31.399Z,28.1
2016-11-30T10:12:36.115Z,28.2
2016-11-30T10:13:32.857Z,28.3
2016-11-30T10:14:31.755Z,28.3
2016-11-30T10:15:32.540Z,28.4
2016-11-30T10:16:37.067Z,28.5
2016-11-30T10:17:31.753Z,28.5
2016-11-30T10:18:32.590Z,28.6
2016-11-30T10:19:35.947Z,28.6
2016-11-30T10:20:32.900Z,28.7
2016-11-30T10:21:32.617Z,28.7
2016-11-30T10:22:35.034Z,28.8
2016-11-30T10:23:35.448Z,28.8
2016-11-30T10:24:36.387Z,28.9
2016-11-30T10:25:34.997Z,28.9
2016-11-30T10:26:32.482Z,29
2016-11-30T10:27:36.593Z,29
2016-11-30T10:28:37.714Z,29.1
2016-11-30T10:29:37.451Z,29.1
2016-11-30T10:30:34.361Z,29.1
2016-11-30T10:31:33.418Z,29.2
2016-11-30T10:32:32.916Z,29.2
2016-11-30T10:33:34.876Z,29.3
2016-11-30T10:34:39.099Z,29.4
2016-11-30T10:35:34.144Z,29.5
2016-11-30T10:36:33.422Z,29.5
2016-11-30T10:37:37.080Z,29.5
2016-11-30T10:38:33.082Z,29.6
2016-11-30T10:39:33.351Z,29.6
2016-11-30T10:40:37.983Z,29.7
2016-11-30T10:41:37.201Z,29.8
2016-11-30T10:42:35.671Z,29.9
2016-11-30T10:43:37.984Z,29.9
2016-11-30T10:44:33.353Z,30
2016-11-30T10:45:37.421Z,30.1
2016-11-30T10:46:34.812Z,30.1
2016-11-30T10:47:37.423Z,30.2
2016-11-30T10:48:38.757Z,30.3
2016-11-30T10:49:34.234Z,30.3
2016-11-30T10:50:39.513Z,30.4
2016-11-30T10:51:34.279Z,30.5
2016-11-30T10:52:39.585Z,30.6
2016-11-30T10:53:38.775Z,30.7
2016-11-30T10:54:40.407Z,30.8
2016-11-30T10:55:40.338Z,30.9
2016-11-30T10:56:36.590Z,31
2016-11-30T10:57:38.110Z,31
2016-11-30T10:58:40.619Z,31.1
2016-11-30T10:59:40.730Z,31.2
2016-11-30T11:00:42.635Z,31.3
2016-11-30T11:01:41.841Z,31.4
2016-11-30T11:02:42.770Z,31.5
2016-11-30T11:03:37.740Z,31.6
2016-11-30T11:04:39.463Z,31.7
2016-11-30T11:05:36.059Z,31.7
2016-11-30T11:06:41.485Z,31.5
2016-11-30T11:07:35.902Z,31.2
2016-11-30T11:08:44.229Z,30.9
2016-11-30T11:09:38.064Z,30.7
2016-11-30T11:10:42.136Z,30.5
2016-11-30T11:11:40.834Z,30.3
2016-11-30T11:12:38.995Z,30.2
2016-11-30T11:13:34.682Z,30
2016-11-30T11:14:39.464Z,29.9
2016-11-30T11:15:44.019Z,29.8
2016-11-30T11:16:39.660Z,29.8
2016-11-30T11:17:39.687Z,29.7
2016-11-30T11:18:40.888Z,29.7
2016-11-30T11:19:36.599Z,29.7
2016-11-30T11:20:37.227Z,29.6
2016-11-30T11:21:45.287Z,29.6
2016-11-30T11:22:36.158Z,29.6
2016-11-30T11:23:41.684Z,29.6
2016-11-30T11:24:42.427Z,29.5
2016-11-30T11:25:39.275Z,29.5
2016-11-30T11:26:36.575Z,29.5
2016-11-30T11:27:35.366Z,29.4
2016-11-30T11:28:40.292Z,29.3
2016-11-30T11:29:40.142Z,29.2
2016-11-30T11:30:36.166Z,29.1
2016-11-30T11:31:37.289Z,29
2016-11-30T11:32:42.493Z,29
2016-11-30T11:33:41.842Z,29
2016-11-30T11:34:42.860Z,29
2016-11-30T11:35:35.838Z,28.9
2016-11-30T11:36:35.839Z,28.8
2016-11-30T11:37:40.383Z,28.8
2016-11-30T11:38:36.021Z,28.8
2016-11-30T11:39:36.984Z,28.8
2016-11-30T11:40:39.920Z,28.7
2016-11-30T11:41:40.844Z,28.6
2016-11-30T11:42:36.076Z,28.6
2016-11-30T11:43:36.309Z,28.6
2016-11-30T11:44:36.419Z,28.6
2016-11-30T11:45:42.603Z,28.5
2016-11-30T11:46:36.400Z,28.5
2016-11-30T11:47:37.144Z,28.5
2016-11-30T11:48:41.916Z,28.6
2016-11-30T11:49:36.637Z,28.6
2016-11-30T11:50:36.652Z,28.6
2016-11-30T11:51:38.751Z,28.8
2016-11-30T11:52:37.448Z,28.8
2016-11-30T11:53:42.538Z,28.9
2016-11-30T11:54:36.603Z,28.9
2016-11-30T11:55:40.696Z,28.9
2016-11-30T11:56:39.081Z,29
2016-11-30T11:57:36.864Z,29.1
2016-11-30T11:58:37.588Z,29.2
2016-11-30T11:59:42.369Z,29.3
2016-11-30T12:00:41.658Z,29.3
2016-11-30T12:01:37.645Z,29.5
2016-11-30T12:02:41.702Z,29.8
2016-11-30T12:03:36.947Z,30
2016-11-30T12:04:37.006Z,30.3
2016-11-30T12:05:42.299Z,30.5
2016-11-30T12:06:37.649Z,30.8
2016-11-30T12:07:37.134Z,31
2016-11-30T12:08:37.883Z,31.2
2016-11-30T12:09:37.993Z,31.3
2016-11-30T12:10:41.417Z,31.4
2016-11-30T12:11:38.254Z,31.5
2016-11-30T12:12:38.057Z,31.7
2016-11-30T12:13:42.304Z,31.8
2016-11-30T12:14:41.594Z,31.9
2016-11-30T12:15:39.393Z,32
2016-11-30T12:16:38.170Z,32
2016-11-30T12:17:37.816Z,32.1
2016-11-30T12:18:44.444Z,32.2
2016-11-30T12:19:42.404Z,32.4
2016-11-30T12:20:38.323Z,32.4
2016-11-30T12:21:42.497Z,32.5
2016-11-30T12:22:38.387Z,32.6
2016-11-30T12:23:38.680Z,32.7
2016-11-30T12:24:43.909Z,32.8
2016-11-30T12:25:43.704Z,32.9
2016-11-30T12:26:42.174Z,33
2016-11-30T12:27:45.224Z,33.1
2016-11-30T12:28:44.580Z,33.2
2016-11-30T12:29:39.455Z,33.3
2016-11-30T12:30:42.940Z,33.4
2016-11-30T12:31:39.295Z,33.5
2016-11-30T12:32:38.943Z,33.5
2016-11-30T12:33:42.733Z,33.6
2016-11-30T12:34:39.337Z,33.6
2016-11-30T12:35:38.586Z,33.6
2016-11-30T12:36:38.731Z,33.6
2016-11-30T12:37:40.694Z,33.7
2016-11-30T12:38:44.891Z,33.7
2016-11-30T12:39:43.517Z,33.7
2016-11-30T12:40:40.640Z,33.7
2016-11-30T12:41:44.904Z,33.7
2016-11-30T12:42:39.814Z,33.8
2016-11-30T12:43:40.916Z,33.8
2016-11-30T12:44:41.615Z,33.8
2016-11-30T12:45:45.432Z,33.8
2016-11-30T12:46:41.082Z,33.7
2016-11-30T12:47:40.556Z,33.7
2016-11-30T12:48:39.991Z,33.8
2016-11-30T12:49:45.971Z,33.8
2016-11-30T12:50:40.552Z,33.8
2016-11-30T12:51:41.573Z,33.8
2016-11-30T12:52:41.656Z,33.8
2016-11-30T12:53:40.607Z,33.8
2016-11-30T12:54:40.013Z,33.8
2016-11-30T12:55:43.583Z,33.8
2016-11-30T12:56:43.605Z,33.8
2016-11-30T12:57:41.109Z,33.8
2016-11-30T12:58:40.266Z,33.7
2016-11-30T12:59:39.688Z,33.6
2016-11-30T13:00:39.775Z,33.6
2016-11-30T13:01:41.706Z,33.6
2016-11-30T13:02:45.362Z,33.5
2016-11-30T13:03:43.069Z,33.5
2016-11-30T13:04:45.430Z,33.5
2016-11-30T13:05:44.882Z,33.4
2016-11-30T13:06:40.538Z,33.3
2016-11-30T13:07:44.991Z,33.3
2016-11-30T13:08:41.173Z,33.3
2016-11-30T13:09:45.793Z,33.2
2016-11-30T13:10:45.273Z,33.2
2016-11-30T13:11:44.243Z,33.2
2016-11-30T13:12:41.895Z,33.1
2016-11-30T13:13:40.982Z,33
2016-11-30T13:14:41.082Z,33
2016-11-30T13:15:45.143Z,32.9
2016-11-30T13:16:44.951Z,32.9
2016-11-30T13:17:43.661Z,32.8
2016-11-30T13:18:45.158Z,32.8
2016-11-30T13:19:45.216Z,32.7
2016-11-30T13:20:47.204Z,32.7
2016-11-30T13:21:45.973Z,32.7
2016-11-30T13:22:51.458Z,32.6
2016-11-30T13:23:45.447Z,32.5
2016-11-30T13:24:41.583Z,32.5
2016-11-30T13:25:45.519Z,32.4
2016-11-30T13:26:42.322Z,32.3
2016-11-30T13:27:41.005Z,32.4